sensor_id;sensor_type;location;lat;lon;timestamp;temperature;humidity
41722;DHT22;27407;24.142;-110.310;2023-02-28T00:01:29;24.80;62.20
41722;DHT22;27407;24.142;-110.310;2023-02-28T00:03:59;25.60;63.20
41722;DHT22;27407;24.142;-110.310;2023-02-28T00:06:31;25.50;62.80
41722;DHT22;27407;24.142;-110.310;2023-02-28T00:11:28;25.00;63.50
41722;DHT22;27407;24.142;-110.310;2023-02-28T00:16:22;24.00;62.60
41722;DHT22;27407;24.142;-110.310;2023-02-28T00:18:49;25.10;62.20
41722;DHT22;27407;24.142;-110.310;2023-02-28T00:21:17;24.80;61.10
41722;DHT22;27407;24.142;-110.310;2023-02-28T00:23:44;24.70;61.10
41722;DHT22;27407;24.142;-110.310;2023-02-28T00:26:11;25.20;61.60
41722;DHT22;27407;24.142;-110.310;2023-02-28T00:28:38;24.70;58.60
41722;DHT22;27407;24.142;-110.310;2023-02-28T00:31:05;24.30;58.40
41722;DHT22;27407;24.142;-110.310;2023-02-28T00:36:06;24.10;61.40
41722;DHT22;27407;24.142;-110.310;2023-02-28T00:38:33;24.10;60.80
41722;DHT22;27407;24.142;-110.310;2023-02-28T00:41:06;23.80;59.10
41722;DHT22;27407;24.142;-110.310;2023-02-28T00:43:35;24.00;59.30
41722;DHT22;27407;24.142;-110.310;2023-02-28T00:46:03;22.80;58.90
41722;DHT22;27407;24.142;-110.310;2023-02-28T00:48:30;24.00;57.90
41722;DHT22;27407;24.142;-110.310;2023-02-28T00:50:56;24.60;58.70
41722;DHT22;27407;24.142;-110.310;2023-02-28T00:53:23;23.80;59.70
41722;DHT22;27407;24.142;-110.310;2023-02-28T00:55:54;23.80;60.40
41722;DHT22;27407;24.142;-110.310;2023-02-28T00:58:24;26.10;62.70
41722;DHT22;27407;24.142;-110.310;2023-02-28T01:00:54;23.60;61.60
41722;DHT22;27407;24.142;-110.310;2023-02-28T01:03:21;23.50;62.70
41722;DHT22;27407;24.142;-110.310;2023-02-28T01:08:15;23.20;64.40
41722;DHT22;27407;24.142;-110.310;2023-02-28T01:10:42;23.20;65.30
41722;DHT22;27407;24.142;-110.310;2023-02-28T01:13:09;23.10;67.50
41722;DHT22;27407;24.142;-110.310;2023-02-28T01:20:32;22.40;74.50
41722;DHT22;27407;24.142;-110.310;2023-02-28T01:25:25;22.10;75.30
41722;DHT22;27407;24.142;-110.310;2023-02-28T01:27:52;21.90;75.60
41722;DHT22;27407;24.142;-110.310;2023-02-28T01:30:19;21.80;75.90
41722;DHT22;27407;24.142;-110.310;2023-02-28T01:32:49;21.30;77.20
41722;DHT22;27407;24.142;-110.310;2023-02-28T01:37:52;20.40;80.20
41722;DHT22;27407;24.142;-110.310;2023-02-28T01:40:19;21.10;81.60
41722;DHT22;27407;24.142;-110.310;2023-02-28T01:42:46;21.10;83.40
41722;DHT22;27407;24.142;-110.310;2023-02-28T01:45:26;21.10;84.70
41722;DHT22;27407;24.142;-110.310;2023-02-28T01:47:58;21.10;85.30
41722;DHT22;27407;24.142;-110.310;2023-02-28T01:50:30;21.00;85.60
41722;DHT22;27407;24.142;-110.310;2023-02-28T01:53:01;21.00;85.60
41722;DHT22;27407;24.142;-110.310;2023-02-28T01:55:31;20.80;86.60
41722;DHT22;27407;24.142;-110.310;2023-02-28T01:58:00;20.80;87.10
41722;DHT22;27407;24.142;-110.310;2023-02-28T02:00:29;20.70;87.80
41722;DHT22;27407;24.142;-110.310;2023-02-28T02:03:04;20.50;87.90
41722;DHT22;27407;24.142;-110.310;2023-02-28T02:05:31;20.60;88.40
41722;DHT22;27407;24.142;-110.310;2023-02-28T02:08:05;20.60;87.30
41722;DHT22;27407;24.142;-110.310;2023-02-28T02:10:55;20.50;86.30
41722;DHT22;27407;24.142;-110.310;2023-02-28T02:18:51;20.20;91.00
41722;DHT22;27407;24.142;-110.310;2023-02-28T02:32:00;20.60;93.60
41722;DHT22;27407;24.142;-110.310;2023-02-28T02:37:15;19.60;98.30
41722;DHT22;27407;24.142;-110.310;2023-02-28T02:40:38;19.70;99.90
41722;DHT22;27407;24.142;-110.310;2023-02-28T02:45:38;19.30;99.90
41722;DHT22;27407;24.142;-110.310;2023-02-28T02:48:09;19.30;99.90
41722;DHT22;27407;24.142;-110.310;2023-02-28T02:50:44;19.20;99.90
41722;DHT22;27407;24.142;-110.310;2023-02-28T02:53:13;19.30;99.90
41722;DHT22;27407;24.142;-110.310;2023-02-28T02:55:43;19.20;99.90
41722;DHT22;27407;24.142;-110.310;2023-02-28T02:58:16;19.20;99.90
41722;DHT22;27407;24.142;-110.310;2023-02-28T03:00:48;19.20;99.90
41722;DHT22;27407;24.142;-110.310;2023-02-28T03:03:16;19.10;99.90
41722;DHT22;27407;24.142;-110.310;2023-02-28T03:05:48;18.60;99.90
41722;DHT22;27407;24.142;-110.310;2023-02-28T03:08:16;18.90;99.90
41722;DHT22;27407;24.142;-110.310;2023-02-28T03:10:45;19.20;99.90
41722;DHT22;27407;24.142;-110.310;2023-02-28T03:13:37;18.90;99.90
41722;DHT22;27407;24.142;-110.310;2023-02-28T03:19:25;18.70;99.90
41722;DHT22;27407;24.142;-110.310;2023-02-28T03:27:28;18.80;99.90
41722;DHT22;27407;24.142;-110.310;2023-02-28T03:30:14;18.90;99.90
41722;DHT22;27407;24.142;-110.310;2023-02-28T03:32:58;18.80;99.90
41722;DHT22;27407;24.142;-110.310;2023-02-28T03:35:31;19.10;99.90
41722;DHT22;27407;24.142;-110.310;2023-02-28T03:38:15;18.50;99.90
41722;DHT22;27407;24.142;-110.310;2023-02-28T03:40:49;18.60;99.90
41722;DHT22;27407;24.142;-110.310;2023-02-28T03:43:24;18.40;99.90
41722;DHT22;27407;24.142;-110.310;2023-02-28T03:45:55;19.20;99.90
41722;DHT22;27407;24.142;-110.310;2023-02-28T03:48:31;18.50;99.90
41722;DHT22;27407;24.142;-110.310;2023-02-28T03:50:59;18.40;99.90
41722;DHT22;27407;24.142;-110.310;2023-02-28T03:53:52;18.40;99.90
41722;DHT22;27407;24.142;-110.310;2023-02-28T03:56:41;18.50;99.90
41722;DHT22;27407;24.142;-110.310;2023-02-28T04:01:48;17.90;99.90
41722;DHT22;27407;24.142;-110.310;2023-02-28T04:04:16;18.40;99.90
41722;DHT22;27407;24.142;-110.310;2023-02-28T04:06:44;18.30;99.90
41722;DHT22;27407;24.142;-110.310;2023-02-28T04:09:13;18.30;99.90
41722;DHT22;27407;24.142;-110.310;2023-02-28T04:11:43;18.20;99.90
41722;DHT22;27407;24.142;-110.310;2023-02-28T04:14:11;18.20;99.90
41722;DHT22;27407;24.142;-110.310;2023-02-28T04:16:41;18.60;99.90
41722;DHT22;27407;24.142;-110.310;2023-02-28T04:19:09;18.10;99.90
41722;DHT22;27407;24.142;-110.310;2023-02-28T04:21:38;18.00;99.90
41722;DHT22;27407;24.142;-110.310;2023-02-28T04:24:07;18.10;99.90
41722;DHT22;27407;24.142;-110.310;2023-02-28T04:26:36;18.10;99.90
41722;DHT22;27407;24.142;-110.310;2023-02-28T04:29:04;18.20;99.90
41722;DHT22;27407;24.142;-110.310;2023-02-28T04:31:32;18.50;99.90
41722;DHT22;27407;24.142;-110.310;2023-02-28T04:36:25;17.60;99.90
41722;DHT22;27407;24.142;-110.310;2023-02-28T04:41:18;17.90;99.90
41722;DHT22;27407;24.142;-110.310;2023-02-28T04:46:12;17.60;99.90
41722;DHT22;27407;24.142;-110.310;2023-02-28T04:48:39;17.90;99.90
41722;DHT22;27407;24.142;-110.310;2023-02-28T04:51:12;17.80;99.90
41722;DHT22;27407;24.142;-110.310;2023-02-28T04:53:40;17.80;99.90
41722;DHT22;27407;24.142;-110.310;2023-02-28T04:56:08;17.80;99.90
41722;DHT22;27407;24.142;-110.310;2023-02-28T05:01:23;17.70;99.90
41722;DHT22;27407;24.142;-110.310;2023-02-28T05:03:51;17.70;99.90
41722;DHT22;27407;24.142;-110.310;2023-02-28T05:06:19;17.70;99.90
41722;DHT22;27407;24.142;-110.310;2023-02-28T05:08:46;17.60;99.90
41722;DHT22;27407;24.142;-110.310;2023-02-28T05:11:28;17.00;99.90
41722;DHT22;27407;24.142;-110.310;2023-02-28T05:14:14;17.60;99.90
41722;DHT22;27407;24.142;-110.310;2023-02-28T05:19:08;13.60;99.90
41722;DHT22;27407;24.142;-110.310;2023-02-28T05:21:48;17.50;99.90
41722;DHT22;27407;24.142;-110.310;2023-02-28T05:26:50;17.50;99.90
41722;DHT22;27407;24.142;-110.310;2023-02-28T05:31:45;17.40;99.90
41722;DHT22;27407;24.142;-110.310;2023-02-28T05:36:41;16.80;99.90
41722;DHT22;27407;24.142;-110.310;2023-02-28T05:39:08;17.20;99.90
41722;DHT22;27407;24.142;-110.310;2023-02-28T05:41:42;17.50;99.90
41722;DHT22;27407;24.142;-110.310;2023-02-28T05:44:09;17.40;99.90
41722;DHT22;27407;24.142;-110.310;2023-02-28T05:49:02;16.90;99.90
41722;DHT22;27407;24.142;-110.310;2023-02-28T05:53:59;17.30;99.90
41722;DHT22;27407;24.142;-110.310;2023-02-28T05:56:27;16.50;99.90
41722;DHT22;27407;24.142;-110.310;2023-02-28T06:01:24;17.20;99.90
41722;DHT22;27407;24.142;-110.310;2023-02-28T06:03:56;17.20;99.90
41722;DHT22;27407;24.142;-110.310;2023-02-28T06:16:12;17.00;99.90
41722;DHT22;27407;24.142;-110.310;2023-02-28T06:18:39;17.10;99.90
41722;DHT22;27407;24.142;-110.310;2023-02-28T06:26:00;16.90;99.90
41722;DHT22;27407;24.142;-110.310;2023-02-28T06:35:49;16.70;99.90
41722;DHT22;27407;24.142;-110.310;2023-02-28T06:40:44;16.70;99.90
41722;DHT22;27407;24.142;-110.310;2023-02-28T06:43:11;16.70;99.90
41722;DHT22;27407;24.142;-110.310;2023-02-28T06:45:43;16.50;99.90
41722;DHT22;27407;24.142;-110.310;2023-02-28T06:50:36;17.60;99.90
41722;DHT22;27407;24.142;-110.310;2023-02-28T06:55:30;16.30;99.90
41722;DHT22;27407;24.142;-110.310;2023-02-28T06:57:57;16.40;99.90
41722;DHT22;27407;24.142;-110.310;2023-02-28T07:00:24;16.50;99.90
41722;DHT22;27407;24.142;-110.310;2023-02-28T07:10:13;16.50;99.90
41722;DHT22;27407;24.142;-110.310;2023-02-28T07:15:09;16.10;99.90
41722;DHT22;27407;24.142;-110.310;2023-02-28T07:17:36;16.10;99.90
41722;DHT22;27407;24.142;-110.310;2023-02-28T07:20:03;15.80;99.90
41722;DHT22;27407;24.142;-110.310;2023-02-28T07:24:57;16.20;99.90
41722;DHT22;27407;24.142;-110.310;2023-02-28T07:27:23;16.10;99.90
41722;DHT22;27407;24.142;-110.310;2023-02-28T07:29:52;15.90;99.90
41722;DHT22;27407;24.142;-110.310;2023-02-28T07:32:19;16.00;99.90
41722;DHT22;27407;24.142;-110.310;2023-02-28T07:42:08;15.80;99.90
41722;DHT22;27407;24.142;-110.310;2023-02-28T07:44:38;16.40;99.90
41722;DHT22;27407;24.142;-110.310;2023-02-28T07:47:15;15.40;99.90
41722;DHT22;27407;24.142;-110.310;2023-02-28T08:01:57;15.10;99.90
41722;DHT22;27407;24.142;-110.310;2023-02-28T08:04:25;15.20;99.90
41722;DHT22;27407;24.142;-110.310;2023-02-28T08:09:19;14.70;99.90
41722;DHT22;27407;24.142;-110.310;2023-02-28T08:26:27;14.80;99.90
41722;DHT22;27407;24.142;-110.310;2023-02-28T08:33:49;14.40;99.90
41722;DHT22;27407;24.142;-110.310;2023-02-28T08:41:25;14.70;99.90
41722;DHT22;27407;24.142;-110.310;2023-02-28T08:43:52;14.50;99.90
41722;DHT22;27407;24.142;-110.310;2023-02-28T08:46:20;14.70;99.90
41722;DHT22;27407;24.142;-110.310;2023-02-28T08:51:17;15.10;99.90
41722;DHT22;27407;24.142;-110.310;2023-02-28T08:56:16;15.30;99.90
41722;DHT22;27407;24.142;-110.310;2023-02-28T08:58:44;14.50;99.90
41722;DHT22;27407;24.142;-110.310;2023-02-28T09:01:16;14.50;99.90
41722;DHT22;27407;24.142;-110.310;2023-02-28T09:03:45;14.40;99.90
41722;DHT22;27407;24.142;-110.310;2023-02-28T09:06:13;14.50;99.90
41722;DHT22;27407;24.142;-110.310;2023-02-28T09:08:40;14.40;99.90
41722;DHT22;27407;24.142;-110.310;2023-02-28T09:11:07;14.30;99.90
41722;DHT22;27407;24.142;-110.310;2023-02-28T09:13:34;14.40;99.90
41722;DHT22;27407;24.142;-110.310;2023-02-28T09:16:03;14.30;99.90
41722;DHT22;27407;24.142;-110.310;2023-02-28T09:18:30;14.40;99.90
41722;DHT22;27407;24.142;-110.310;2023-02-28T09:20:57;14.50;99.90
41722;DHT22;27407;24.142;-110.310;2023-02-28T09:23:24;14.30;99.90
41722;DHT22;27407;24.142;-110.310;2023-02-28T09:25:53;15.20;99.90
41722;DHT22;27407;24.142;-110.310;2023-02-28T09:28:20;14.30;99.90
41722;DHT22;27407;24.142;-110.310;2023-02-28T09:30:50;14.00;99.90
41722;DHT22;27407;24.142;-110.310;2023-02-28T09:33:18;14.10;99.90
41722;DHT22;27407;24.142;-110.310;2023-02-28T09:35:47;13.90;99.90
41722;DHT22;27407;24.142;-110.310;2023-02-28T09:38:15;14.10;99.90
41722;DHT22;27407;24.142;-110.310;2023-02-28T09:40:52;14.10;99.90
41722;DHT22;27407;24.142;-110.310;2023-02-28T09:43:22;14.10;99.90
41722;DHT22;27407;24.142;-110.310;2023-02-28T09:45:59;14.30;99.90
41722;DHT22;27407;24.142;-110.310;2023-02-28T09:48:33;14.10;99.90
41722;DHT22;27407;24.142;-110.310;2023-02-28T09:51:16;14.10;99.90
41722;DHT22;27407;24.142;-110.310;2023-02-28T09:56:24;13.60;99.90
41722;DHT22;27407;24.142;-110.310;2023-02-28T10:01:50;13.80;99.90
41722;DHT22;27407;24.142;-110.310;2023-02-28T10:12:53;13.80;99.90
41722;DHT22;27407;24.142;-110.310;2023-02-28T10:15:23;13.10;99.90
41722;DHT22;27407;24.142;-110.310;2023-02-28T10:17:54;13.50;99.90
41722;DHT22;27407;24.142;-110.310;2023-02-28T10:20:23;14.20;99.90
41722;DHT22;27407;24.142;-110.310;2023-02-28T10:25:28;13.60;99.90
41722;DHT22;27407;24.142;-110.310;2023-02-28T10:28:11;13.40;99.90
41722;DHT22;27407;24.142;-110.310;2023-02-28T10:30:45;13.50;99.90
41722;DHT22;27407;24.142;-110.310;2023-02-28T10:33:36;13.60;99.90
41722;DHT22;27407;24.142;-110.310;2023-02-28T10:36:03;13.30;99.90
41722;DHT22;27407;24.142;-110.310;2023-02-28T10:38:37;13.30;99.90
41722;DHT22;27407;24.142;-110.310;2023-02-28T10:46:09;12.70;99.90
41722;DHT22;27407;24.142;-110.310;2023-02-28T10:51:16;13.40;99.90
41722;DHT22;27407;24.142;-110.310;2023-02-28T10:53:50;13.40;99.90
41722;DHT22;27407;24.142;-110.310;2023-02-28T10:56:20;13.30;99.90
41722;DHT22;27407;24.142;-110.310;2023-02-28T11:01:42;12.60;99.90
41722;DHT22;27407;24.142;-110.310;2023-02-28T11:04:33;12.80;99.90
41722;DHT22;27407;24.142;-110.310;2023-02-28T11:07:21;13.10;99.90
41722;DHT22;27407;24.142;-110.310;2023-02-28T11:09:53;13.70;99.90
41722;DHT22;27407;24.142;-110.310;2023-02-28T11:12:28;13.00;99.90
41722;DHT22;27407;24.142;-110.310;2023-02-28T11:15:01;12.30;99.90
41722;DHT22;27407;24.142;-110.310;2023-02-28T11:17:31;13.40;99.90
41722;DHT22;27407;24.142;-110.310;2023-02-28T11:20:06;12.40;99.90
41722;DHT22;27407;24.142;-110.310;2023-02-28T11:22:39;12.50;99.90
41722;DHT22;27407;24.142;-110.310;2023-02-28T11:25:21;12.70;99.90
41722;DHT22;27407;24.142;-110.310;2023-02-28T11:27:51;12.70;99.90
41722;DHT22;27407;24.142;-110.310;2023-02-28T11:30:34;12.60;99.90
41722;DHT22;27407;24.142;-110.310;2023-02-28T11:35:49;13.40;99.90
41722;DHT22;27407;24.142;-110.310;2023-02-28T11:46:52;13.30;99.90
41722;DHT22;27407;24.142;-110.310;2023-02-28T11:55:11;13.10;99.90
41722;DHT22;27407;24.142;-110.310;2023-02-28T12:05:40;11.30;99.90
41722;DHT22;27407;24.142;-110.310;2023-02-28T12:27:38;13.00;99.90
41722;DHT22;27407;24.142;-110.310;2023-02-28T12:30:28;13.00;99.90
41722;DHT22;27407;24.142;-110.310;2023-02-28T12:33:02;12.80;99.90
41722;DHT22;27407;24.142;-110.310;2023-02-28T12:35:54;13.10;99.90
41722;DHT22;27407;24.142;-110.310;2023-02-28T12:38:38;12.70;99.90
41722;DHT22;27407;24.142;-110.310;2023-02-28T12:44:02;12.20;99.90
41722;DHT22;27407;24.142;-110.310;2023-02-28T12:46:35;12.40;99.90
41722;DHT22;27407;24.142;-110.310;2023-02-28T12:49:48;12.10;99.90
41722;DHT22;27407;24.142;-110.310;2023-02-28T12:52:06;11.90;99.90
41722;DHT22;27407;24.142;-110.310;2023-02-28T12:54:47;13.50;99.90
41722;DHT22;27407;24.142;-110.310;2023-02-28T12:59:57;12.40;99.90
41722;DHT22;27407;24.142;-110.310;2023-02-28T13:13:31;12.40;99.90
41722;DHT22;27407;24.142;-110.310;2023-02-28T13:16:06;12.40;99.90
41722;DHT22;27407;24.142;-110.310;2023-02-28T13:18:45;12.50;99.90
41722;DHT22;27407;24.142;-110.310;2023-02-28T13:21:29;12.40;99.90
41722;DHT22;27407;24.142;-110.310;2023-02-28T13:23:59;11.60;99.90
41722;DHT22;27407;24.142;-110.310;2023-02-28T13:29:32;12.40;99.90
41722;DHT22;27407;24.142;-110.310;2023-02-28T13:39:53;12.70;99.90
41722;DHT22;27407;24.142;-110.310;2023-02-28T13:42:36;12.40;99.90
41722;DHT22;27407;24.142;-110.310;2023-02-28T13:58:45;11.70;99.90
41722;DHT22;27407;24.142;-110.310;2023-02-28T14:06:59;12.10;99.90
41722;DHT22;27407;24.142;-110.310;2023-02-28T14:09:39;12.80;99.90
41722;DHT22;27407;24.142;-110.310;2023-02-28T14:15:38;12.70;99.90
41722;DHT22;27407;24.142;-110.310;2023-02-28T14:20:42;12.90;99.90
41722;DHT22;27407;24.142;-110.310;2023-02-28T14:34:35;13.70;99.90
41722;DHT22;27407;24.142;-110.310;2023-02-28T14:37:03;13.90;99.90
41722;DHT22;27407;24.142;-110.310;2023-02-28T14:39:31;14.10;99.90
41722;DHT22;27407;24.142;-110.310;2023-02-28T14:41:58;14.00;99.90
41722;DHT22;27407;24.142;-110.310;2023-02-28T14:44:31;14.50;99.90
41722;DHT22;27407;24.142;-110.310;2023-02-28T14:47:00;14.60;99.90
41722;DHT22;27407;24.142;-110.310;2023-02-28T14:49:35;14.00;99.90
41722;DHT22;27407;24.142;-110.310;2023-02-28T14:52:12;15.00;99.90
41722;DHT22;27407;24.142;-110.310;2023-02-28T14:54:41;16.20;99.90
41722;DHT22;27407;24.142;-110.310;2023-02-28T14:57:23;15.40;99.90
41722;DHT22;27407;24.142;-110.310;2023-02-28T15:00:15;17.10;99.90
41722;DHT22;27407;24.142;-110.310;2023-02-28T15:02:42;15.80;99.90
41722;DHT22;27407;24.142;-110.310;2023-02-28T15:07:39;16.40;99.90
41722;DHT22;27407;24.142;-110.310;2023-02-28T15:13:04;16.60;99.90
41722;DHT22;27407;24.142;-110.310;2023-02-28T15:18:45;16.80;99.90
41722;DHT22;27407;24.142;-110.310;2023-02-28T15:21:20;17.40;99.90
41722;DHT22;27407;24.142;-110.310;2023-02-28T15:26:32;17.30;99.90
41722;DHT22;27407;24.142;-110.310;2023-02-28T15:29:01;17.50;99.90
41722;DHT22;27407;24.142;-110.310;2023-02-28T15:31:43;18.00;99.90
41722;DHT22;27407;24.142;-110.310;2023-02-28T15:34:22;18.20;99.90
41722;DHT22;27407;24.142;-110.310;2023-02-28T15:36:49;19.20;99.90
41722;DHT22;27407;24.142;-110.310;2023-02-28T15:39:29;18.70;99.90
41722;DHT22;27407;24.142;-110.310;2023-02-28T15:42:16;19.00;99.90
41722;DHT22;27407;24.142;-110.310;2023-02-28T15:44:44;18.00;99.90
41722;DHT22;27407;24.142;-110.310;2023-02-28T15:47:20;19.10;99.90
41722;DHT22;27407;24.142;-110.310;2023-02-28T15:49:54;19.10;99.90
41722;DHT22;27407;24.142;-110.310;2023-02-28T15:52:41;19.40;99.90
41722;DHT22;27407;24.142;-110.310;2023-02-28T15:57:47;19.20;99.90
41722;DHT22;27407;24.142;-110.310;2023-02-28T16:00:18;19.30;99.90
41722;DHT22;27407;24.142;-110.310;2023-02-28T16:07:41;19.60;99.90
41722;DHT22;27407;24.142;-110.310;2023-02-28T16:10:15;19.60;99.90
41722;DHT22;27407;24.142;-110.310;2023-02-28T16:15:21;19.80;99.90
41722;DHT22;27407;24.142;-110.310;2023-02-28T16:17:49;19.90;99.90
41722;DHT22;27407;24.142;-110.310;2023-02-28T16:20:29;19.90;99.90
41722;DHT22;27407;24.142;-110.310;2023-02-28T16:22:56;20.40;99.90
41722;DHT22;27407;24.142;-110.310;2023-02-28T16:28:02;21.00;99.90
41722;DHT22;27407;24.142;-110.310;2023-02-28T16:30:30;20.30;99.90
41722;DHT22;27407;24.142;-110.310;2023-02-28T16:37:53;20.90;99.90
41722;DHT22;27407;24.142;-110.310;2023-02-28T16:40:24;20.70;99.90
41722;DHT22;27407;24.142;-110.310;2023-02-28T16:42:54;21.40;99.90
41722;DHT22;27407;24.142;-110.310;2023-02-28T16:45:25;20.90;99.90
41722;DHT22;27407;24.142;-110.310;2023-02-28T16:47:52;21.00;99.90
41722;DHT22;27407;24.142;-110.310;2023-02-28T16:50:22;20.90;99.90
41722;DHT22;27407;24.142;-110.310;2023-02-28T16:52:49;21.20;99.90
41722;DHT22;27407;24.142;-110.310;2023-02-28T16:55:27;21.00;99.90
41722;DHT22;27407;24.142;-110.310;2023-02-28T16:57:59;21.00;99.90
41722;DHT22;27407;24.142;-110.310;2023-02-28T17:00:27;21.10;99.90
41722;DHT22;27407;24.142;-110.310;2023-02-28T17:02:55;21.20;99.90
41722;DHT22;27407;24.142;-110.310;2023-02-28T17:05:23;21.20;99.90
41722;DHT22;27407;24.142;-110.310;2023-02-28T17:07:50;21.10;99.90
41722;DHT22;27407;24.142;-110.310;2023-02-28T17:10:25;21.50;99.90
41722;DHT22;27407;24.142;-110.310;2023-02-28T17:20:21;22.40;99.90
41722;DHT22;27407;24.142;-110.310;2023-02-28T17:22:55;21.80;99.90
41722;DHT22;27407;24.142;-110.310;2023-02-28T17:25:23;21.50;99.90
41722;DHT22;27407;24.142;-110.310;2023-02-28T17:27:50;22.00;99.90
41722;DHT22;27407;24.142;-110.310;2023-02-28T17:30:25;22.00;99.90
41722;DHT22;27407;24.142;-110.310;2023-02-28T17:32:56;22.30;99.90
41722;DHT22;27407;24.142;-110.310;2023-02-28T17:35:23;22.30;99.90
41722;DHT22;27407;24.142;-110.310;2023-02-28T17:40:19;22.10;99.90
41722;DHT22;27407;24.142;-110.310;2023-02-28T17:42:46;22.10;99.90
41722;DHT22;27407;24.142;-110.310;2023-02-28T17:45:14;22.10;99.90
41722;DHT22;27407;24.142;-110.310;2023-02-28T17:47:43;22.00;99.90
41722;DHT22;27407;24.142;-110.310;2023-02-28T17:50:16;22.00;99.90
41722;DHT22;27407;24.142;-110.310;2023-02-28T17:52:42;22.00;99.90
41722;DHT22;27407;24.142;-110.310;2023-02-28T17:55:10;21.20;99.90
41722;DHT22;27407;24.142;-110.310;2023-02-28T18:00:05;21.90;99.90
41722;DHT22;27407;24.142;-110.310;2023-02-28T18:02:33;21.80;99.90
41722;DHT22;27407;24.142;-110.310;2023-02-28T18:07:37;21.70;99.90
41722;DHT22;27407;24.142;-110.310;2023-02-28T18:10:05;21.80;99.90
41722;DHT22;27407;24.142;-110.310;2023-02-28T18:15:00;23.60;99.90
41722;DHT22;27407;24.142;-110.310;2023-02-28T18:22:20;22.70;99.90
41722;DHT22;27407;24.142;-110.310;2023-02-28T18:24:47;22.70;99.90
41722;DHT22;27407;24.142;-110.310;2023-02-28T18:29:40;23.20;99.90
41722;DHT22;27407;24.142;-110.310;2023-02-28T18:34:34;23.10;99.90
41722;DHT22;27407;24.142;-110.310;2023-02-28T18:39:30;23.70;99.90
41722;DHT22;27407;24.142;-110.310;2023-02-28T18:41:57;23.60;99.90
41722;DHT22;27407;24.142;-110.310;2023-02-28T18:49:18;23.70;99.90
41722;DHT22;27407;24.142;-110.310;2023-02-28T18:51:46;24.70;99.50
41722;DHT22;27407;24.142;-110.310;2023-02-28T18:54:14;24.00;99.90
41722;DHT22;27407;24.142;-110.310;2023-02-28T18:56:41;23.60;99.90
41722;DHT22;27407;24.142;-110.310;2023-02-28T18:59:08;23.90;99.90
41722;DHT22;27407;24.142;-110.310;2023-02-28T19:01:36;24.30;96.20
41722;DHT22;27407;24.142;-110.310;2023-02-28T19:04:03;24.80;93.20
41722;DHT22;27407;24.142;-110.310;2023-02-28T19:06:31;25.20;86.60
41722;DHT22;27407;24.142;-110.310;2023-02-28T19:08:59;25.00;73.20
41722;DHT22;27407;24.142;-110.310;2023-02-28T19:11:27;25.20;72.30
41722;DHT22;27407;24.142;-110.310;2023-02-28T19:13:53;25.40;70.40
41722;DHT22;27407;24.142;-110.310;2023-02-28T19:16:21;26.30;70.40
41722;DHT22;27407;24.142;-110.310;2023-02-28T19:18:48;25.20;70.30
41722;DHT22;27407;24.142;-110.310;2023-02-28T19:21:17;25.40;70.00
41722;DHT22;27407;24.142;-110.310;2023-02-28T19:23:44;25.30;71.10
41722;DHT22;27407;24.142;-110.310;2023-02-28T19:26:14;25.40;70.50
41722;DHT22;27407;24.142;-110.310;2023-02-28T19:28:42;25.30;69.30
41722;DHT22;27407;24.142;-110.310;2023-02-28T19:31:22;25.00;69.60
41722;DHT22;27407;24.142;-110.310;2023-02-28T19:33:49;24.80;69.60
41722;DHT22;27407;24.142;-110.310;2023-02-28T19:36:19;25.20;69.60
41722;DHT22;27407;24.142;-110.310;2023-02-28T19:38:47;25.10;68.90
41722;DHT22;27407;24.142;-110.310;2023-02-28T19:41:15;25.10;68.70
41722;DHT22;27407;24.142;-110.310;2023-02-28T19:43:42;25.30;68.70
41722;DHT22;27407;24.142;-110.310;2023-02-28T19:46:09;25.20;68.90
41722;DHT22;27407;24.142;-110.310;2023-02-28T19:48:37;26.80;70.10
41722;DHT22;27407;24.142;-110.310;2023-02-28T19:51:09;24.70;70.00
41722;DHT22;27407;24.142;-110.310;2023-02-28T19:53:38;25.20;69.70
41722;DHT22;27407;24.142;-110.310;2023-02-28T19:56:05;23.80;69.70
41722;DHT22;27407;24.142;-110.310;2023-02-28T19:58:32;24.90;71.50
41722;DHT22;27407;24.142;-110.310;2023-02-28T20:01:09;25.10;71.60
41722;DHT22;27407;24.142;-110.310;2023-02-28T20:03:36;25.10;69.10
41722;DHT22;27407;24.142;-110.310;2023-02-28T20:06:05;23.70;69.10
41722;DHT22;27407;24.142;-110.310;2023-02-28T20:08:33;26.00;69.90
41722;DHT22;27407;24.142;-110.310;2023-02-28T20:11:04;25.40;68.50
41722;DHT22;27407;24.142;-110.310;2023-02-28T20:13:31;25.40;67.70
41722;DHT22;27407;24.142;-110.310;2023-02-28T20:16:02;25.70;67.60
41722;DHT22;27407;24.142;-110.310;2023-02-28T20:18:32;25.30;68.40
41722;DHT22;27407;24.142;-110.310;2023-02-28T20:20:59;25.40;68.60
41722;DHT22;27407;24.142;-110.310;2023-02-28T20:23:27;25.50;67.90
41722;DHT22;27407;24.142;-110.310;2023-02-28T20:26:00;25.80;67.90
41722;DHT22;27407;24.142;-110.310;2023-02-28T20:30:53;26.20;63.60
41722;DHT22;27407;24.142;-110.310;2023-02-28T20:35:47;26.50;62.10
41722;DHT22;27407;24.142;-110.310;2023-02-28T20:38:14;26.20;60.00
41722;DHT22;27407;24.142;-110.310;2023-02-28T20:48:01;25.50;60.20
41722;DHT22;27407;24.142;-110.310;2023-02-28T20:50:27;25.40;60.30
41722;DHT22;27407;24.142;-110.310;2023-02-28T20:55:21;25.50;60.80
41722;DHT22;27407;24.142;-110.310;2023-02-28T20:57:47;26.20;60.80
41722;DHT22;27407;24.142;-110.310;2023-02-28T21:00:15;26.20;59.30
41722;DHT22;27407;24.142;-110.310;2023-02-28T21:02:44;27.00;58.80
41722;DHT22;27407;24.142;-110.310;2023-02-28T21:07:37;28.70;57.40
41722;DHT22;27407;24.142;-110.310;2023-02-28T21:10:04;28.90;57.20
41722;DHT22;27407;24.142;-110.310;2023-02-28T21:12:31;29.60;56.50
41722;DHT22;27407;24.142;-110.310;2023-02-28T21:17:24;29.50;56.00
41722;DHT22;27407;24.142;-110.310;2023-02-28T21:24:44;29.10;68.80
41722;DHT22;27407;24.142;-110.310;2023-02-28T21:27:11;29.60;69.10
41722;DHT22;27407;24.142;-110.310;2023-02-28T21:29:37;29.00;67.30
41722;DHT22;27407;24.142;-110.310;2023-02-28T21:32:04;30.20;67.60
41722;DHT22;27407;24.142;-110.310;2023-02-28T21:34:32;30.50;67.40
41722;DHT22;27407;24.142;-110.310;2023-02-28T21:39:26;29.70;67.60
41722;DHT22;27407;24.142;-110.310;2023-02-28T21:41:55;29.40;67.40
41722;DHT22;27407;24.142;-110.310;2023-02-28T21:44:29;29.10;68.10
41722;DHT22;27407;24.142;-110.310;2023-02-28T21:46:56;29.60;68.70
41722;DHT22;27407;24.142;-110.310;2023-02-28T21:49:26;31.30;67.50